Time;durP1;ratioP1;P1;durP2;ratioP2;P2;SDS_P1;SDS_P2;PMS_P1;PMS_P2;Temp;Humidity;BMP_temperature;BMP_pressure;BME280_temperature;BME280_humidity;BME280_pressure;Samples;Min_cycle;Max_cycle;Signal;HPM_P1;HPM_P2
2022/01/27 00:00:38;;;;;;;30.38;18.23;;;;;;;;;;5037104;28;20045;-90
2022/01/27 00:03:23;;;;;;;33.75;18.48;;;;;;;;;;5037124;28;20041;-92
2022/01/27 00:05:55;;;;;;;35.83;19.45;;;;;;;;;;5037517;28;20048;-94
2022/01/27 00:08:40;;;;;;;33.72;18.77;;;;;;;;;;5070715;28;20107;-91
2022/01/27 00:11:13;;;;;;;33.95;19.05;;;;;;;;;;5070258;28;20041;-87
2022/01/27 00:13:45;;;;;;;34.45;18.20;;;;;;;;;;5070681;28;20040;-88
2022/01/27 00:18:38;;;;;;;35.60;20.17;;;;;;;;;;5053063;28;20121;-93
2022/01/27 00:21:04;;;;;;;34.42;18.88;;;;;;;;;;5056761;28;20048;-89
2022/01/27 00:23:31;;;;;;;31.80;19.40;;;;;;;;;;5056560;28;20131;-91
2022/01/27 00:25:57;;;;;;;34.50;20.10;;;;;;;;;;5056957;28;20037;-89
2022/01/27 00:28:23;;;;;;;32.15;19.10;;;;;;;;;;5055784;28;20127;-93
2022/01/27 00:30:49;;;;;;;38.03;19.83;;;;;;;;;;5057028;28;20036;-88
2022/01/27 00:33:15;;;;;;;34.75;19.75;;;;;;;;;;5056876;28;20051;-93
2022/01/27 00:35:41;;;;;;;34.67;20.42;;;;;;;;;;5056749;28;20127;-91
2022/01/27 00:38:08;;;;;;;42.33;19.23;;;;;;;;;;5056743;28;20041;-91
2022/01/27 00:40:34;;;;;;;35.30;20.67;;;;;;;;;;5073088;28;20121;-91
2022/01/27 00:43:00;;;;;;;35.20;19.67;;;;;;;;;;5056433;28;20043;-92
2022/01/27 00:45:29;;;;;;;34.58;20.40;;;;;;;;;;5055787;28;20043;-90
2022/01/27 00:47:56;;;;;;;35.63;21.10;;;;;;;;;;5090107;28;20127;-93
2022/01/27 00:50:22;;;;;;;35.55;20.15;;;;;;;;;;5090355;28;20094;-91
2022/01/27 00:52:52;;;;;;;36.92;20.17;;;;;;;;;;5056178;28;20051;-91
2022/01/27 00:55:20;;;;;;;36.17;20.90;;;;;;;;;;5089773;28;20049;-89
2022/01/27 01:00:36;;;;;;;41.30;22.23;;;;;;;;;;5075806;28;20054;-89
2022/01/27 01:03:10;;;;;;;39.20;21.13;;;;;;;;;;5110387;28;20633;-92
2022/01/27 01:16:00;;;;;;;39.42;22.30;;;;;;;;;;5074695;28;20109;-93
2022/01/27 01:18:55;;;;;;;37.33;21.30;;;;;;;;;;5056941;28;20055;-93
2022/01/27 01:32:37;;;;;;;35.60;21.75;;;;;;;;;;5047313;28;20419;-94
2022/01/27 01:35:05;;;;;;;43.15;21.85;;;;;;;;;;5067763;28;20067;-89
2022/01/27 01:37:37;;;;;;;37.88;20.23;;;;;;;;;;5055359;28;20037;-90
2022/01/27 01:40:12;;;;;;;38.00;20.92;;;;;;;;;;5055677;28;20046;-93
2022/01/27 01:42:38;;;;;;;33.70;20.33;;;;;;;;;;5055925;28;20072;-89
2022/01/27 01:45:06;;;;;;;39.33;22.58;;;;;;;;;;5064210;28;20036;-92
2022/01/27 01:47:32;;;;;;;34.55;21.40;;;;;;;;;;5054718;28;20039;-88
2022/01/27 01:49:59;;;;;;;39.42;21.80;;;;;;;;;;5056403;28;20427;-90
2022/01/27 01:52:26;;;;;;;36.33;20.58;;;;;;;;;;5055426;28;20040;-87
2022/01/27 01:54:54;;;;;;;41.38;22.67;;;;;;;;;;5088876;28;20072;-89
2022/01/27 01:57:20;;;;;;;37.28;21.17;;;;;;;;;;5054670;28;20082;-92
2022/01/27 01:59:46;;;;;;;35.00;20.55;;;;;;;;;;5038488;28;20075;-91
2022/01/27 02:02:13;;;;;;;33.72;21.23;;;;;;;;;;5038067;28;20093;-88
2022/01/27 02:04:39;;;;;;;34.63;20.30;;;;;;;;;;5088550;28;20040;-87
2022/01/27 02:07:14;;;;;;;36.47;20.95;;;;;;;;;;5055068;28;20040;-86
2022/01/27 02:18:03;;;;;;;35.88;21.75;;;;;;;;;;5108334;28;20046;-88
2022/01/27 02:20:31;;;;;;;39.30;21.38;;;;;;;;;;5091414;28;20039;-88
2022/01/27 02:22:58;;;;;;;35.83;20.52;;;;;;;;;;5091257;28;20081;-89
2022/01/27 02:25:24;;;;;;;34.45;21.35;;;;;;;;;;5074705;28;20061;-90
2022/01/27 02:27:55;;;;;;;38.67;21.58;;;;;;;;;;5091893;28;20671;-91
2022/01/27 02:30:22;;;;;;;40.72;22.40;;;;;;;;;;5106380;28;20522;-89
2022/01/27 02:32:52;;;;;;;36.35;22.02;;;;;;;;;;5055353;28;20040;-84
2022/01/27 02:35:19;;;;;;;40.22;22.65;;;;;;;;;;5107115;28;20081;-93
2022/01/27 02:37:46;;;;;;;38.00;21.98;;;;;;;;;;5108242;28;20040;-89
2022/01/27 02:40:28;;;;;;;36.70;21.13;;;;;;;;;;5057612;28;20483;-89
2022/01/27 02:42:54;;;;;;;34.58;21.33;;;;;;;;;;5108052;28;20055;-92
2022/01/27 02:45:28;;;;;;;34.15;21.92;;;;;;;;;;5074566;28;20119;-90
2022/01/27 02:47:54;;;;;;;39.92;22.85;;;;;;;;;;5074060;28;20036;-90
2022/01/27 02:50:20;;;;;;;36.45;22.80;;;;;;;;;;5075538;28;20436;-92
2022/01/27 02:52:46;;;;;;;38.38;22.05;;;;;;;;;;5078418;28;20123;-94
2022/01/27 02:55:13;;;;;;;37.67;21.83;;;;;;;;;;5062266;28;20123;-88
2022/01/27 02:57:39;;;;;;;39.20;21.50;;;;;;;;;;5112126;28;20040;-91
2022/01/27 03:00:06;;;;;;;37.58;22.90;;;;;;;;;;5112459;28;20082;-92
2022/01/27 03:02:34;;;;;;;38.05;22.92;;;;;;;;;;5078339;28;20032;-89
2022/01/27 03:05:00;;;;;;;37.38;23.13;;;;;;;;;;5111994;28;20040;-88
2022/01/27 03:07:27;;;;;;;39.28;21.58;;;;;;;;;;5078544;28;20032;-90
2022/01/27 03:09:54;;;;;;;34.28;21.10;;;;;;;;;;5095026;28;20502;-89
2022/01/27 03:12:23;;;;;;;40.08;22.88;;;;;;;;;;5112127;28;20123;-90
2022/01/27 03:14:50;;;;;;;39.55;23.15;;;;;;;;;;5111978;28;20036;-89
2022/01/27 03:17:16;;;;;;;37.05;22.33;;;;;;;;;;5094433;28;20048;-88
2022/01/27 03:19:42;;;;;;;36.05;21.85;;;;;;;;;;5077703;28;20067;-90
2022/01/27 03:22:09;;;;;;;35.10;22.00;;;;;;;;;;5078180;28;20039;-91
2022/01/27 03:24:36;;;;;;;40.08;22.60;;;;;;;;;;5111379;28;20040;-92
2022/01/27 03:27:02;;;;;;;36.45;21.98;;;;;;;;;;5077807;28;20042;-94
2022/01/27 03:29:28;;;;;;;37.30;22.45;;;;;;;;;;5077509;28;20047;-90
2022/01/27 03:31:55;;;;;;;37.85;22.40;;;;;;;;;;5061017;28;20040;-89
2022/01/27 03:34:21;;;;;;;37.38;22.08;;;;;;;;;;5077931;28;20040;-88
2022/01/27 03:36:49;;;;;;;36.47;22.77;;;;;;;;;;5111331;28;20123;-92
2022/01/27 03:39:18;;;;;;;35.47;22.17;;;;;;;;;;5077443;28;20562;-90
2022/01/27 03:41:53;;;;;;;41.45;23.60;;;;;;;;;;5060589;28;20036;-91
2022/01/27 03:44:20;;;;;;;41.63;22.88;;;;;;;;;;5111594;28;20450;-87
2022/01/27 03:46:46;;;;;;;39.67;22.88;;;;;;;;;;5059923;28;20085;-87
2022/01/27 03:49:12;;;;;;;37.25;22.95;;;;;;;;;;5060670;28;20105;-89
2022/01/27 03:51:39;;;;;;;38.17;22.02;;;;;;;;;;5075489;28;20074;-91
2022/01/27 03:54:05;;;;;;;37.03;21.70;;;;;;;;;;5076264;28;20495;-85
2022/01/27 03:56:31;;;;;;;40.88;22.75;;;;;;;;;;5076854;28;20069;-90
2022/01/27 03:58:57;;;;;;;36.63;22.13;;;;;;;;;;5077150;28;20044;-90
2022/01/27 04:01:24;;;;;;;39.30;22.33;;;;;;;;;;5076775;28;20134;-91
2022/01/27 04:03:53;;;;;;;40.17;22.85;;;;;;;;;;5111097;28;20146;-87
2022/01/27 04:06:22;;;;;;;40.90;23.63;;;;;;;;;;5076780;28;20585;-91
2022/01/27 04:08:49;;;;;;;36.70;21.90;;;;;;;;;;5061216;28;20427;-91
2022/01/27 04:11:15;;;;;;;44.75;24.52;;;;;;;;;;5111438;28;20044;-90
2022/01/27 04:13:41;;;;;;;39.70;22.45;;;;;;;;;;5077938;28;20506;-92
2022/01/27 04:16:08;;;;;;;39.88;22.42;;;;;;;;;;5060801;28;20142;-89
2022/01/27 04:18:35;;;;;;;36.35;21.63;;;;;;;;;;5093748;28;20591;-90
2022/01/27 04:21:01;;;;;;;39.17;21.83;;;;;;;;;;5077086;28;20058;-88
2022/01/27 04:23:28;;;;;;;37.13;21.35;;;;;;;;;;5076752;28;20560;-87
2022/01/27 04:25:54;;;;;;;37.45;22.10;;;;;;;;;;5076674;28;20036;-90
2022/01/27 04:28:27;;;;;;;37.83;22.25;;;;;;;;;;5076545;28;20119;-92
2022/01/27 04:30:56;;;;;;;37.97;21.83;;;;;;;;;;5110525;28;20044;-88
2022/01/27 04:33:29;;;;;;;38.72;21.15;;;;;;;;;;5109876;28;20052;-89
2022/01/27 04:35:59;;;;;;;40.25;22.23;;;;;;;;;;5059987;28;20376;-91
2022/01/27 04:38:33;;;;;;;35.03;21.58;;;;;;;;;;5103726;28;20044;-93
2022/01/27 04:48:31;;;;;;;37.22;22.10;;;;;;;;;;5098175;28;20047;-92
2022/01/27 04:51:05;;;;;;;38.30;20.63;;;;;;;;;;5059478;28;20058;-89
2022/01/27 04:53:36;;;;;;;36.42;20.65;;;;;;;;;;5110131;28;20121;-91
2022/01/27 04:56:02;;;;;;;37.08;20.73;;;;;;;;;;5059533;28;20036;-93
2022/01/27 04:58:30;;;;;;;41.00;21.13;;;;;;;;;;5059324;28;20089;-90
2022/01/27 05:01:00;;;;;;;40.90;20.38;;;;;;;;;;5110366;28;20044;-92
2022/01/27 05:04:04;;;;;;;41.53;20.85;;;;;;;;;;5109289;28;20044;-88
2022/01/27 05:06:19;;;;;;;38.05;20.73;;;;;;;;;;5073593;28;20127;-87
2022/01/27 05:08:45;;;;;;;35.15;19.65;;;;;;;;;;5097945;28;20507;-92
2022/01/27 05:16:42;;;;;;;35.92;21.38;;;;;;;;;;5032761;28;20404;-89
2022/01/27 05:19:08;;;;;;;37.53;21.83;;;;;;;;;;5057026;28;20052;-89
2022/01/27 05:21:35;;;;;;;39.83;20.90;;;;;;;;;;5055634;28;20036;-92
2022/01/27 05:24:04;;;;;;;36.22;21.27;;;;;;;;;;5088829;28;20044;-89
2022/01/27 05:26:33;;;;;;;41.03;21.60;;;;;;;;;;5102543;28;20040;-86
2022/01/27 05:28:59;;;;;;;39.13;21.48;;;;;;;;;;5092031;28;20050;-89
2022/01/27 05:31:25;;;;;;;46.03;23.50;;;;;;;;;;5109473;28;20051;-87
2022/01/27 05:33:52;;;;;;;42.65;23.65;;;;;;;;;;5075306;28;20199;-88
2022/01/27 05:36:18;;;;;;;43.42;23.90;;;;;;;;;;5074553;28;20403;-87
2022/01/27 05:38:44;;;;;;;42.63;22.55;;;;;;;;;;5055542;28;20040;-87
2022/01/27 05:41:10;;;;;;;46.03;25.35;;;;;;;;;;5071112;28;20043;-88
2022/01/27 05:43:36;;;;;;;45.45;24.27;;;;;;;;;;5072523;28;20120;-90
2022/01/27 05:46:02;;;;;;;47.85;24.73;;;;;;;;;;5099655;28;20036;-87
2022/01/27 05:48:28;;;;;;;43.88;23.60;;;;;;;;;;5054498;28;20032;-91
2022/01/27 05:50:55;;;;;;;48.10;24.17;;;;;;;;;;5071629;28;20044;-86
2022/01/27 05:53:21;;;;;;;49.20;24.65;;;;;;;;;;5072285;28;20047;-89
2022/01/27 05:55:47;;;;;;;49.72;24.80;;;;;;;;;;5072800;28;20036;-88
2022/01/27 05:58:14;;;;;;;50.35;24.65;;;;;;;;;;5053457;28;20054;-87
2022/01/27 06:00:40;;;;;;;50.47;24.80;;;;;;;;;;5055370;28;20032;-87
2022/01/27 06:03:06;;;;;;;47.72;25.98;;;;;;;;;;5088695;28;20119;-90
2022/01/27 06:05:36;;;;;;;52.47;25.77;;;;;;;;;;5105762;28;20051;-89
2022/01/27 06:08:02;;;;;;;53.20;26.10;;;;;;;;;;5101042;28;20040;-90
2022/01/27 06:10:28;;;;;;;48.92;26.55;;;;;;;;;;5086826;28;20511;-89
2022/01/27 06:12:58;;;;;;;47.90;26.13;;;;;;;;;;5059424;28;20515;-88
2022/01/27 06:15:25;;;;;;;53.38;26.55;;;;;;;;;;5106014;28;20048;-89
2022/01/27 06:17:51;;;;;;;53.33;27.00;;;;;;;;;;5102501;27;20048;-86
2022/01/27 06:20:18;;;;;;;53.42;26.13;;;;;;;;;;5088119;28;20078;-85
2022/01/27 06:22:44;;;;;;;49.97;26.67;;;;;;;;;;5071945;28;20115;-84
2022/01/27 06:25:12;;;;;;;50.35;25.38;;;;;;;;;;5093515;28;20036;-87
2022/01/27 06:27:38;;;;;;;53.45;26.73;;;;;;;;;;5074796;28;20367;-88
2022/01/27 06:30:05;;;;;;;54.70;26.42;;;;;;;;;;5058203;28;20439;-85
2022/01/27 06:32:32;;;;;;;54.95;26.27;;;;;;;;;;5075197;28;20114;-84
2022/01/27 06:34:58;;;;;;;54.08;26.35;;;;;;;;;;5063553;28;20044;-88
2022/01/27 06:37:24;;;;;;;51.25;26.50;;;;;;;;;;5104228;28;20069;-86
2022/01/27 06:39:52;;;;;;;52.58;26.75;;;;;;;;;;5069525;28;20044;-86
2022/01/27 06:42:19;;;;;;;49.20;23.67;;;;;;;;;;5043000;28;20103;-86
2022/01/27 06:44:45;;;;;;;48.60;24.27;;;;;;;;;;5096837;28;20111;-89
2022/01/27 06:47:11;;;;;;;46.55;24.25;;;;;;;;;;5061733;28;20024;-86
2022/01/27 06:49:37;;;;;;;50.25;26.23;;;;;;;;;;5058172;28;20067;-86
2022/01/27 06:52:03;;;;;;;51.78;24.02;;;;;;;;;;5076593;28;20046;-85
2022/01/27 06:54:30;;;;;;;47.50;24.67;;;;;;;;;;5080347;28;20040;-86
2022/01/27 06:56:56;;;;;;;46.33;22.40;;;;;;;;;;5054365;28;20042;-88
2022/01/27 06:59:22;;;;;;;48.97;22.92;;;;;;;;;;5089541;28;20542;-88
2022/01/27 07:01:48;;;;;;;42.15;23.58;;;;;;;;;;5113147;28;20036;-86
2022/01/27 07:04:14;;;;;;;43.20;22.10;;;;;;;;;;5086211;28;20035;-92
2022/01/27 07:06:40;;;;;;;45.15;22.85;;;;;;;;;;5080757;28;20040;-86
2022/01/27 07:09:07;;;;;;;42.78;22.77;;;;;;;;;;5104943;28;20039;-85
2022/01/27 07:11:33;;;;;;;46.85;22.13;;;;;;;;;;5065040;28;20586;-89
2022/01/27 07:13:59;;;;;;;44.22;21.90;;;;;;;;;;5067989;28;20476;-87
2022/01/27 07:16:26;;;;;;;43.17;21.40;;;;;;;;;;5054547;28;20040;-91
2022/01/27 07:18:52;;;;;;;44.17;22.02;;;;;;;;;;5059896;28;20100;-85
2022/01/27 07:21:19;;;;;;;41.28;21.63;;;;;;;;;;5050114;28;20123;-88
2022/01/27 07:23:46;;;;;;;44.65;21.63;;;;;;;;;;5100315;28;20033;-90
2022/01/27 07:26:13;;;;;;;43.83;21.05;;;;;;;;;;5087305;28;20036;-89
2022/01/27 07:28:40;;;;;;;49.33;22.10;;;;;;;;;;5099509;28;20071;-90
2022/01/27 07:31:06;;;;;;;42.05;21.33;;;;;;;;;;5051842;28;20041;-88
2022/01/27 07:33:32;;;;;;;40.50;20.08;;;;;;;;;;5067829;28;20036;-87
2022/01/27 07:35:59;;;;;;;41.47;19.90;;;;;;;;;;5065491;28;20491;-88
2022/01/27 07:38:26;;;;;;;39.85;21.33;;;;;;;;;;5071732;28;20072;-86
2022/01/27 07:40:53;;;;;;;43.92;20.65;;;;;;;;;;5065629;28;20031;-86
2022/01/27 07:43:19;;;;;;;45.60;21.08;;;;;;;;;;5083370;28;20055;-88
2022/01/27 07:45:45;;;;;;;45.40;20.33;;;;;;;;;;5078944;28;20032;-88
2022/01/27 07:48:12;;;;;;;40.45;19.35;;;;;;;;;;5069976;28;20044;-88
2022/01/27 07:50:38;;;;;;;40.08;18.98;;;;;;;;;;5102680;27;20536;-91
2022/01/27 07:53:04;;;;;;;39.17;20.50;;;;;;;;;;5069291;28;20036;-90
2022/01/27 07:55:30;;;;;;;40.53;21.08;;;;;;;;;;5090135;28;20032;-87
2022/01/27 07:57:56;;;;;;;42.33;20.80;;;;;;;;;;5073262;28;20044;-90
2022/01/27 08:00:23;;;;;;;38.58;20.88;;;;;;;;;;5057473;28;20052;-90
2022/01/27 08:02:49;;;;;;;42.50;19.92;;;;;;;;;;5107219;28;20048;-86
2022/01/27 08:05:15;;;;;;;42.45;20.83;;;;;;;;;;5107346;28;20491;-87
2022/01/27 08:07:41;;;;;;;47.10;20.73;;;;;;;;;;5117021;27;20140;-90
2022/01/27 08:10:08;;;;;;;47.47;22.55;;;;;;;;;;5085118;28;20077;-86
2022/01/27 08:12:39;;;;;;;47.25;22.10;;;;;;;;;;5075462;28;20043;-84
2022/01/27 08:15:05;;;;;;;46.13;22.30;;;;;;;;;;5091803;28;20062;-89
2022/01/27 08:17:31;;;;;;;45.60;22.80;;;;;;;;;;5079858;28;20056;-87
2022/01/27 08:19:58;;;;;;;41.65;20.40;;;;;;;;;;5064988;28;20554;-86
2022/01/27 08:22:24;;;;;;;44.13;21.88;;;;;;;;;;5120536;27;20119;-91
2022/01/27 08:24:50;;;;;;;48.70;21.85;;;;;;;;;;5073656;28;20101;-86
2022/01/27 08:27:19;;;;;;;56.10;22.00;;;;;;;;;;5079942;28;20141;-85
2022/01/27 08:29:52;;;;;;;50.25;22.15;;;;;;;;;;5039442;28;20123;-84
2022/01/27 08:32:29;;;;;;;53.00;22.52;;;;;;;;;;5088323;28;20046;-87
2022/01/27 08:34:55;;;;;;;42.17;20.50;;;;;;;;;;5041441;28;20047;-85
2022/01/27 08:37:21;;;;;;;46.28;20.20;;;;;;;;;;5102766;28;20431;-87
2022/01/27 08:39:48;;;;;;;42.75;18.95;;;;;;;;;;5073961;28;20123;-85
2022/01/27 08:42:15;;;;;;;46.22;20.50;;;;;;;;;;5105952;28;20040;-85
2022/01/27 08:44:41;;;;;;;43.00;19.15;;;;;;;;;;5106986;28;20028;-86
2022/01/27 08:47:07;;;;;;;44.83;19.13;;;;;;;;;;5072028;28;20396;-89
2022/01/27 08:49:34;;;;;;;46.28;18.63;;;;;;;;;;5072945;28;20414;-86
2022/01/27 08:52:02;;;;;;;37.40;17.60;;;;;;;;;;5112291;27;20368;-86
2022/01/27 08:54:28;;;;;;;37.67;17.80;;;;;;;;;;5068795;28;20032;-85
2022/01/27 08:56:55;;;;;;;42.28;17.92;;;;;;;;;;5089840;28;20054;-83
2022/01/27 08:59:21;;;;;;;35.03;15.77;;;;;;;;;;5091046;28;20474;-88
2022/01/27 09:01:47;;;;;;;38.88;16.80;;;;;;;;;;5111513;27;20032;-88
2022/01/27 09:04:14;;;;;;;33.80;15.25;;;;;;;;;;5066031;28;20039;-84
2022/01/27 09:06:40;;;;;;;40.50;14.77;;;;;;;;;;5078878;28;20047;-87
2022/01/27 09:09:06;;;;;;;42.00;16.25;;;;;;;;;;5056714;28;20481;-85
2022/01/27 09:11:33;;;;;;;34.45;13.68;;;;;;;;;;5076218;28;20047;-84
2022/01/27 09:14:00;;;;;;;32.55;13.65;;;;;;;;;;5104789;27;20164;-86
2022/01/27 09:16:28;;;;;;;39.67;14.70;;;;;;;;;;5084776;28;20082;-87
2022/01/27 09:18:55;;;;;;;30.42;13.05;;;;;;;;;;5065913;28;20165;-87
2022/01/27 09:21:26;;;;;;;32.25;12.93;;;;;;;;;;5063845;28;20032;-86
2022/01/27 09:23:53;;;;;;;25.40;11.77;;;;;;;;;;5091467;28;20080;-87
2022/01/27 09:26:43;;;;;;;31.48;11.52;;;;;;;;;;5090471;28;20036;-86
2022/01/27 09:29:09;;;;;;;25.90;12.07;;;;;;;;;;5078926;28;20069;-86
2022/01/27 09:31:35;;;;;;;23.75;10.65;;;;;;;;;;5087040;28;20042;-91
2022/01/27 09:34:02;;;;;;;28.90;11.45;;;;;;;;;;5061889;28;20177;-88
2022/01/27 09:36:28;;;;;;;31.08;11.95;;;;;;;;;;5066191;28;20123;-87
2022/01/27 09:38:54;;;;;;;28.85;11.02;;;;;;;;;;5063114;28;20044;-88
2022/01/27 09:41:22;;;;;;;32.45;11.68;;;;;;;;;;5073051;28;20521;-86
2022/01/27 09:43:48;;;;;;;28.27;10.13;;;;;;;;;;5106911;28;20036;-88
2022/01/27 09:46:19;;;;;;;25.23;10.88;;;;;;;;;;5072897;28;20510;-88
2022/01/27 09:48:47;;;;;;;27.17;10.35;;;;;;;;;;5096156;28;20531;-87
2022/01/27 09:53:54;;;;;;;28.33;9.73;;;;;;;;;;5074869;28;20048;-88
2022/01/27 09:56:21;;;;;;;21.08;9.15;;;;;;;;;;5078243;28;20519;-86
2022/01/27 09:58:47;;;;;;;25.27;9.00;;;;;;;;;;5072825;28;20035;-90
2022/01/27 10:01:14;;;;;;;23.40;7.68;;;;;;;;;;5058552;28;20044;-91
2022/01/27 10:03:54;;;;;;;18.83;7.85;;;;;;;;;;5067272;28;20359;-88
2022/01/27 10:06:21;;;;;;;28.20;9.27;;;;;;;;;;5084894;28;20046;-91
2022/01/27 10:09:07;;;;;;;25.38;8.45;;;;;;;;;;5053443;28;20038;-89
2022/01/27 10:11:34;;;;;;;22.55;8.75;;;;;;;;;;5061248;28;20036;-88
2022/01/27 10:14:15;;;;;;;20.13;7.57;;;;;;;;;;5071902;28;20117;-87
2022/01/27 10:16:43;;;;;;;17.65;7.50;;;;;;;;;;5070177;28;20123;-91
2022/01/27 10:19:10;;;;;;;21.30;7.10;;;;;;;;;;5060126;28;20093;-87
2022/01/27 10:21:37;;;;;;;21.75;7.53;;;;;;;;;;5058461;28;20483;-92
2022/01/27 10:24:19;;;;;;;19.13;7.10;;;;;;;;;;5064525;28;20403;-88
2022/01/27 10:26:52;;;;;;;24.17;7.75;;;;;;;;;;5088896;28;20519;-88
2022/01/27 10:29:32;;;;;;;22.88;7.13;;;;;;;;;;5074999;28;20044;-87
2022/01/27 10:32:06;;;;;;;21.15;7.72;;;;;;;;;;5055360;28;20088;-88
2022/01/27 10:34:52;;;;;;;20.65;6.95;;;;;;;;;;5071406;28;20130;-89
2022/01/27 10:37:18;;;;;;;23.38;7.35;;;;;;;;;;5088108;28;20112;-89
2022/01/27 10:39:48;;;;;;;21.15;7.32;;;;;;;;;;5068119;28;20567;-88
2022/01/27 10:42:14;;;;;;;21.10;7.25;;;;;;;;;;5059736;28;20040;-90
2022/01/27 10:44:47;;;;;;;18.35;7.22;;;;;;;;;;5063045;28;20036;-90
2022/01/27 10:47:20;;;;;;;21.63;6.90;;;;;;;;;;5088764;28;20079;-87
2022/01/27 10:49:51;;;;;;;20.13;7.18;;;;;;;;;;5059790;28;20546;-86
2022/01/27 10:52:26;;;;;;;28.10;8.65;;;;;;;;;;5049499;28;20044;-86
2022/01/27 10:55:07;;;;;;;20.00;7.55;;;;;;;;;;5108063;28;20884;-90
2022/01/27 10:57:33;;;;;;;20.98;6.80;;;;;;;;;;5059307;28;20040;-89
2022/01/27 11:00:06;;;;;;;28.10;7.65;;;;;;;;;;5076508;28;20043;-86
2022/01/27 11:02:32;;;;;;;16.42;7.00;;;;;;;;;;5091808;28;20031;-87
2022/01/27 11:04:58;;;;;;;19.83;6.97;;;;;;;;;;5071084;28;20036;-91
2022/01/27 11:07:26;;;;;;;16.92;7.03;;;;;;;;;;5054041;28;20046;-89
2022/01/27 11:09:54;;;;;;;22.45;6.97;;;;;;;;;;5088872;28;20036;-87
2022/01/27 11:12:20;;;;;;;21.30;6.63;;;;;;;;;;5094124;28;20040;-86
2022/01/27 11:14:51;;;;;;;18.02;6.30;;;;;;;;;;5076050;28;20090;-87
2022/01/27 11:17:24;;;;;;;18.80;6.22;;;;;;;;;;5071300;28;20090;-88
2022/01/27 11:19:58;;;;;;;17.95;5.95;;;;;;;;;;5069754;28;20434;-89
2022/01/27 11:25:49;;;;;;;19.40;6.45;;;;;;;;;;5112275;27;20044;-89
2022/01/27 11:27:54;;;;;;;21.55;6.75;;;;;;;;;;5081878;28;20055;-87
2022/01/27 11:30:41;;;;;;;18.83;5.78;;;;;;;;;;5095919;28;20084;-88
2022/01/27 11:33:08;;;;;;;14.75;5.72;;;;;;;;;;5091876;28;20075;-86
2022/01/27 11:35:34;;;;;;;20.25;5.60;;;;;;;;;;5070823;28;20043;-87
2022/01/27 11:38:03;;;;;;;18.50;5.60;;;;;;;;;;5079054;28;20047;-90
2022/01/27 11:40:46;;;;;;;21.80;5.68;;;;;;;;;;5064707;28;20423;-85
2022/01/27 11:43:12;;;;;;;14.77;6.10;;;;;;;;;;5085053;28;20085;-91
2022/01/27 11:45:38;;;;;;;19.20;5.88;;;;;;;;;;5061623;28;20031;-90
2022/01/27 11:48:11;;;;;;;16.73;5.47;;;;;;;;;;5073801;28;20691;-89
2022/01/27 11:50:56;;;;;;;16.35;4.63;;;;;;;;;;5080038;28;20245;-88
2022/01/27 11:53:31;;;;;;;20.83;5.45;;;;;;;;;;5062218;28;20116;-86
2022/01/27 11:56:02;;;;;;;14.10;5.07;;;;;;;;;;5080825;28;20047;-87
2022/01/27 11:58:29;;;;;;;16.70;4.95;;;;;;;;;;5073410;28;20384;-91
2022/01/27 12:01:14;;;;;;;19.00;5.13;;;;;;;;;;5115457;27;20035;-86
2022/01/27 12:03:41;;;;;;;17.88;5.10;;;;;;;;;;5073047;28;20043;-87
2022/01/27 12:06:16;;;;;;;16.80;4.72;;;;;;;;;;5073792;28;20039;-87
2022/01/27 12:08:45;;;;;;;;;;;;;;;;;;5055333;28;20043;-90
2022/01/27 12:11:31;;;;;;;16.40;5.00;;;;;;;;;;5064633;28;20013;-89
2022/01/27 12:14:01;;;;;;;22.63;5.78;;;;;;;;;;5071354;28;20476;-88
2022/01/27 12:18:56;;;;;;;17.58;4.78;;;;;;;;;;5073439;28;20059;-88
2022/01/27 12:21:32;;;;;;;18.33;4.88;;;;;;;;;;5082634;28;20036;-92
2022/01/27 12:24:15;;;;;;;17.23;4.82;;;;;;;;;;5081503;28;20516;-84
2022/01/27 12:26:48;;;;;;;18.83;4.50;;;;;;;;;;5053156;28;20036;-91
2022/01/27 12:29:23;;;;;;;17.58;4.10;;;;;;;;;;5066023;28;20047;-88
2022/01/27 12:31:50;;;;;;;21.35;5.70;;;;;;;;;;5066423;28;20391;-87
2022/01/27 12:34:16;;;;;;;16.73;3.70;;;;;;;;;;5078887;28;20424;-89
2022/01/27 12:36:56;;;;;;;18.83;4.20;;;;;;;;;;5064601;28;20136;-87
2022/01/27 12:39:23;;;;;;;18.88;4.82;;;;;;;;;;5068739;28;20044;-86
2022/01/27 12:41:54;;;;;;;16.33;4.10;;;;;;;;;;5068068;28;20491;-88
2022/01/27 12:44:22;;;;;;;14.52;4.05;;;;;;;;;;5075028;28;20040;-89
2022/01/27 12:47:06;;;;;;;16.45;4.18;;;;;;;;;;5074752;28;20062;-87
2022/01/27 12:49:36;;;;;;;;;;;;;;;;;;5061214;28;20094;-90
2022/01/27 12:52:05;;;;;;;16.75;4.20;;;;;;;;;;5058649;28;19915;-90
2022/01/27 12:54:32;;;;;;;21.17;4.65;;;;;;;;;;5075711;28;20048;-88
2022/01/27 12:56:58;;;;;;;17.77;4.63;;;;;;;;;;5075859;28;20058;-88
2022/01/27 12:59:24;;;;;;;22.77;4.25;;;;;;;;;;5055422;28;20394;-88
2022/01/27 13:01:57;;;;;;;18.35;4.47;;;;;;;;;;5066094;28;20090;-86
2022/01/27 13:04:27;;;;;;;17.73;4.30;;;;;;;;;;5075417;28;20032;-87
2022/01/27 13:06:54;;;;;;;19.80;4.28;;;;;;;;;;5075473;28;20510;-89
2022/01/27 13:09:21;;;;;;;13.30;3.83;;;;;;;;;;5093472;28;20119;-88
2022/01/27 13:11:50;;;;;;;16.17;3.30;;;;;;;;;;5077249;28;20039;-86
2022/01/27 13:14:16;;;;;;;19.63;4.30;;;;;;;;;;5070702;28;20644;-91
2022/01/27 13:16:46;;;;;;;16.55;4.13;;;;;;;;;;5074674;28;20054;-86
2022/01/27 13:19:30;;;;;;;17.90;3.97;;;;;;;;;;5060421;28;20080;-88
2022/01/27 13:22:04;;;;;;;18.15;5.25;;;;;;;;;;5038285;28;20041;-86
2022/01/27 13:24:33;;;;;;;16.90;3.90;;;;;;;;;;5055137;28;20090;-90
2022/01/27 13:27:10;;;;;;;17.40;3.55;;;;;;;;;;5055523;28;20044;-89
2022/01/27 13:29:43;;;;;;;16.27;3.85;;;;;;;;;;5056293;28;20063;-86
2022/01/27 13:32:10;;;;;;;17.58;4.07;;;;;;;;;;5088256;28;20037;-88
2022/01/27 13:34:41;;;;;;;15.23;3.70;;;;;;;;;;5054309;28;20127;-84
2022/01/27 13:37:07;;;;;;;23.35;4.00;;;;;;;;;;5055491;28;20551;-90
2022/01/27 13:42:37;;;;;;;19.17;4.28;;;;;;;;;;5069801;28;20049;-87
2022/01/27 13:45:04;;;;;;;16.90;4.03;;;;;;;;;;5054616;28;20506;-84
2022/01/27 13:47:34;;;;;;;18.80;4.88;;;;;;;;;;5054708;28;20048;-87
2022/01/27 13:50:09;;;;;;;19.55;4.03;;;;;;;;;;5054468;28;20045;-90
2022/01/27 13:52:55;;;;;;;18.80;4.38;;;;;;;;;;5055098;28;20048;-87
2022/01/27 13:55:23;;;;;;;18.20;3.63;;;;;;;;;;5088069;28;20080;-89
2022/01/27 13:58:02;;;;;;;17.92;3.83;;;;;;;;;;5071707;28;20437;-89
2022/01/27 14:00:39;;;;;;;17.27;3.55;;;;;;;;;;5055036;28;20045;-87
2022/01/27 14:03:10;;;;;;;20.20;3.90;;;;;;;;;;5054473;28;20036;-88
2022/01/27 14:05:36;;;;;;;15.65;3.30;;;;;;;;;;5054343;28;20089;-89
2022/01/27 14:08:03;;;;;;;20.05;4.00;;;;;;;;;;5054192;28;20055;-83
2022/01/27 14:10:43;;;;;;;14.40;3.13;;;;;;;;;;5054494;28;20507;-88
2022/01/27 14:13:17;;;;;;;18.00;3.10;;;;;;;;;;5087927;28;20048;-86
2022/01/27 14:15:45;;;;;;;17.17;3.45;;;;;;;;;;5054172;28;20593;-90
2022/01/27 14:18:16;;;;;;;17.48;3.92;;;;;;;;;;5056478;28;20503;-85
2022/01/27 14:20:54;;;;;;;18.88;3.38;;;;;;;;;;5108089;28;20503;-90
2022/01/27 14:23:30;;;;;;;14.95;3.15;;;;;;;;;;5091042;28;20399;-88
2022/01/27 14:26:00;;;;;;;14.85;2.78;;;;;;;;;;5087158;28;20586;-88
2022/01/27 14:28:26;;;;;;;16.42;3.47;;;;;;;;;;5058813;28;20510;-86
2022/01/27 14:30:52;;;;;;;20.42;3.22;;;;;;;;;;5067773;28;20530;-90
2022/01/27 14:33:19;;;;;;;15.93;3.53;;;;;;;;;;5076746;28;20043;-89
2022/01/27 14:35:45;;;;;;;14.88;3.00;;;;;;;;;;5072082;28;20043;-90
2022/01/27 14:38:11;;;;;;;21.35;3.58;;;;;;;;;;5058123;28;20040;-84
2022/01/27 14:40:39;;;;;;;12.98;3.00;;;;;;;;;;5057948;28;20036;-86
2022/01/27 14:43:05;;;;;;;15.40;3.15;;;;;;;;;;5082984;28;20040;-88
2022/01/27 14:45:32;;;;;;;13.93;2.75;;;;;;;;;;5037854;28;20042;-86
2022/01/27 14:48:02;;;;;;;15.57;2.53;;;;;;;;;;5087493;28;20063;-87
2022/01/27 14:50:28;;;;;;;13.52;3.33;;;;;;;;;;5071439;28;20040;-90
2022/01/27 14:52:58;;;;;;;13.35;3.08;;;;;;;;;;5053928;28;20040;-87
2022/01/27 14:55:28;;;;;;;14.82;3.80;;;;;;;;;;5073502;28;20067;-89
2022/01/27 14:57:56;;;;;;;15.25;3.75;;;;;;;;;;5071431;28;20552;-90
2022/01/27 15:00:23;;;;;;;15.55;3.38;;;;;;;;;;5082053;28;20053;-89
2022/01/27 15:02:53;;;;;;;19.75;3.95;;;;;;;;;;5076350;28;20543;-91
2022/01/27 15:05:21;;;;;;;15.75;3.90;;;;;;;;;;5079968;28;20073;-92
2022/01/27 15:07:48;;;;;;;15.93;3.78;;;;;;;;;;5071840;28;20169;-87
2022/01/27 15:10:16;;;;;;;17.00;3.47;;;;;;;;;;5080234;28;20052;-88
2022/01/27 15:12:43;;;;;;;15.85;3.72;;;;;;;;;;5085471;28;20122;-83
2022/01/27 15:20:40;;;;;;;20.67;4.40;;;;;;;;;;5079203;28;20044;-87
2022/01/27 15:23:06;;;;;;;21.17;4.28;;;;;;;;;;5100031;28;20452;-86
2022/01/27 15:25:32;;;;;;;17.75;4.07;;;;;;;;;;5085247;28;20063;-88
2022/01/27 15:27:59;;;;;;;23.75;4.03;;;;;;;;;;5064284;28;20085;-87
2022/01/27 15:30:25;;;;;;;15.00;4.00;;;;;;;;;;5076764;28;20036;-89
2022/01/27 15:32:51;;;;;;;20.42;4.10;;;;;;;;;;5086162;28;20044;-90
2022/01/27 15:35:18;;;;;;;18.25;3.85;;;;;;;;;;5064589;28;20506;-92
2022/01/27 15:37:44;;;;;;;17.00;3.42;;;;;;;;;;5059015;28;20036;-87